Time;durP1;ratioP1;P1;durP2;ratioP2;P2;SDS_P1;SDS_P2;PMS_P1;PMS_P2;Temp;Humidity;BMP_temperature;BMP_pressure;BME280_temperature;BME280_humidity;BME280_pressure;Samples;Min_cycle;Max_cycle;Signal;HPM_P1;HPM_P2
2021/08/05 00:00:41;;;;;;;4.88;3.05;;;;;;;-145.71;100.00;60690.53;4991638;28;20033;-81
2021/08/05 00:03:07;;;;;;;8.27;2.85;;;;;;;-145.71;100.00;60690.53;4991434;28;20034;-81
2021/08/05 00:05:32;;;;;;;4.25;2.80;;;;;;;-145.71;100.00;60690.53;4991753;28;20034;-82
2021/08/05 00:07:57;;;;;;;5.45;3.03;;;;;;;-145.71;100.00;60690.53;4991496;28;20097;-81
2021/08/05 00:10:23;;;;;;;3.80;3.35;;;;;;;-145.71;100.00;60690.53;4991453;28;20026;-81
2021/08/05 00:12:49;;;;;;;5.57;3.10;;;;;;;-145.71;100.00;60690.53;4991375;28;20088;-81
2021/08/05 00:15:14;;;;;;;5.43;2.78;;;;;;;-145.71;100.00;60690.53;4992347;28;20034;-82
2021/08/05 00:17:40;;;;;;;6.90;3.13;;;;;;;-145.71;100.00;60690.53;4994886;28;20497;-82
2021/08/05 00:20:07;;;;;;;3.15;2.92;;;;;;;-145.71;100.00;60690.53;4993736;28;20130;-82
2021/08/05 00:22:32;;;;;;;7.70;3.05;;;;;;;-145.71;100.00;60690.53;4997764;28;20050;-82
2021/08/05 00:24:58;;;;;;;4.40;2.92;;;;;;;-145.71;100.00;60690.53;5012726;28;20059;-82
2021/08/05 00:27:23;;;;;;;5.30;2.97;;;;;;;-145.71;100.00;60690.53;4994203;28;20030;-82
2021/08/05 00:29:49;;;;;;;5.82;3.05;;;;;;;-145.71;100.00;60690.53;4993450;28;20092;-81
2021/08/05 00:32:14;;;;;;;3.97;3.58;;;;;;;-145.71;100.00;60690.53;5011143;28;20036;-82
2021/08/05 00:34:40;;;;;;;5.40;3.40;;;;;;;-145.71;100.00;60690.53;4993344;28;20500;-81
2021/08/05 00:37:05;;;;;;;9.00;3.33;;;;;;;-145.71;100.00;60690.53;5011441;28;20041;-81
2021/08/05 00:39:31;;;;;;;6.60;3.80;;;;;;;-145.71;100.00;60690.53;4992989;28;20145;-83
2021/08/05 00:41:56;;;;;;;8.20;3.58;;;;;;;-145.71;100.00;60690.53;4992520;28;20057;-82
2021/08/05 00:44:21;;;;;;;8.68;3.78;;;;;;;-145.71;100.00;60690.53;5014057;28;20034;-80
2021/08/05 00:46:47;;;;;;;4.45;3.72;;;;;;;-145.71;100.00;60690.53;5014398;28;20026;-81
2021/08/05 00:49:12;;;;;;;4.55;3.60;;;;;;;-145.71;100.00;60690.53;5016113;28;20116;-82
2021/08/05 00:51:38;;;;;;;7.28;4.00;;;;;;;-145.71;100.00;60690.53;5017536;28;20412;-82
2021/08/05 00:54:04;;;;;;;5.97;4.05;;;;;;;-145.71;100.00;60690.53;5017039;28;20029;-82
2021/08/05 00:56:29;;;;;;;5.00;3.28;;;;;;;-145.71;100.00;60690.53;4998664;28;20397;-82
2021/08/05 00:58:55;;;;;;;5.78;3.72;;;;;;;-145.71;100.00;60690.53;5015372;28;20160;-82
2021/08/05 01:01:24;;;;;;;6.03;3.47;;;;;;;-145.71;100.00;60690.53;5016178;28;20564;-81
2021/08/05 01:03:53;;;;;;;4.47;3.80;;;;;;;-145.71;100.00;60690.53;5014441;28;20021;-81
2021/08/05 01:06:22;;;;;;;7.13;3.85;;;;;;;-145.71;100.00;60690.53;5013770;28;20565;-81
2021/08/05 01:08:59;;;;;;;5.55;3.67;;;;;;;-145.71;100.00;60690.53;5014348;28;20034;-81
2021/08/05 01:11:30;;;;;;;5.97;3.33;;;;;;;-145.71;100.00;60690.53;4996054;28;20112;-82
2021/08/05 01:14:00;;;;;;;5.95;4.07;;;;;;;-145.71;100.00;60690.53;5013705;28;20079;-81
2021/08/05 01:16:29;;;;;;;6.10;3.80;;;;;;;-145.71;100.00;60690.53;5013996;28;20034;-82
2021/08/05 01:19:00;;;;;;;6.15;3.67;;;;;;;-145.71;100.00;60690.53;4995304;28;20416;-81
2021/08/05 01:21:43;;;;;;;8.95;4.60;;;;;;;-145.71;100.00;60690.53;4998513;28;20034;-81
2021/08/05 01:24:12;;;;;;;4.63;3.80;;;;;;;-145.71;100.00;60690.53;5016412;28;20061;-82
2021/08/05 01:26:47;;;;;;;5.45;3.50;;;;;;;-145.71;100.00;60690.53;5016102;28;20030;-82
2021/08/05 01:29:13;;;;;;;6.72;3.20;;;;;;;-145.71;100.00;60690.53;4996688;28;20030;-82
2021/08/05 01:31:39;;;;;;;6.53;3.30;;;;;;;-145.71;100.00;60690.53;5014325;28;20398;-81
2021/08/05 01:34:05;;;;;;;3.90;3.00;;;;;;;-145.71;100.00;60690.53;5013825;28;20030;-81
2021/08/05 01:36:31;;;;;;;7.63;3.88;;;;;;;-145.71;100.00;60690.53;5013995;28;20108;-81
2021/08/05 01:42:19;;;;;;;8.15;4.45;;;;;;;-145.71;100.00;60690.53;5013026;28;20091;-81
2021/08/05 01:44:46;;;;;;;7.70;4.50;;;;;;;-145.71;100.00;60690.53;5013120;28;20034;-82
2021/08/05 01:47:13;;;;;;;4.93;3.95;;;;;;;-145.71;100.00;60690.53;4994905;28;20041;-82
2021/08/05 01:49:39;;;;;;;6.88;5.22;;;;;;;-145.71;100.00;60690.53;5012888;28;20030;-82
2021/08/05 01:52:07;;;;;;;7.85;5.38;;;;;;;-145.71;100.00;60690.53;4994806;28;20029;-82
2021/08/05 01:54:33;;;;;;;6.50;5.00;;;;;;;-145.71;100.00;60690.53;5011397;28;20037;-81
2021/08/05 01:56:58;;;;;;;8.95;4.93;;;;;;;-145.71;100.00;60690.53;5014906;28;20124;-82
2021/08/05 01:59:24;;;;;;;6.40;4.85;;;;;;;-145.71;100.00;60690.53;5017323;28;20034;-82
2021/08/05 02:01:49;;;;;;;13.07;6.28;;;;;;;-145.71;100.00;60690.53;5015915;28;20025;-82
2021/08/05 02:04:32;;;;;;;5.43;4.93;;;;;;;-145.71;100.00;60690.53;4996915;28;20116;-81
2021/08/05 02:07:00;;;;;;;9.80;5.50;;;;;;;-145.71;100.00;60690.53;5014415;28;20025;-82
2021/08/05 02:09:32;;;;;;;8.40;5.32;;;;;;;-145.71;100.00;60690.53;4996766;28;20030;-82
2021/08/05 02:11:58;;;;;;;5.28;4.57;;;;;;;-145.71;100.00;60690.53;5015018;28;20471;-82
2021/08/05 02:14:27;;;;;;;9.40;4.32;;;;;;;-145.71;100.00;60690.53;4996297;28;20064;-82
2021/08/05 02:16:53;;;;;;;6.93;4.63;;;;;;;-145.71;100.00;60690.53;5013887;28;20030;-82
2021/08/05 02:19:19;;;;;;;7.65;4.75;;;;;;;-145.71;100.00;60690.53;5013454;28;20124;-82
2021/08/05 02:21:45;;;;;;;6.57;3.95;;;;;;;-145.71;100.00;60690.53;5013132;28;20421;-82
2021/08/05 02:24:12;;;;;;;6.82;4.57;;;;;;;-145.71;100.00;60690.53;5012305;28;20112;-82
2021/08/05 02:26:40;;;;;;;9.07;4.20;;;;;;;-145.71;100.00;60690.53;4994812;28;20060;-82
2021/08/05 02:29:06;;;;;;;5.35;3.83;;;;;;;-145.71;100.00;60690.53;5014834;28;20429;-82
2021/08/05 02:31:36;;;;;;;6.60;3.55;;;;;;;-145.71;100.00;60690.53;5013671;28;20056;-82
2021/08/05 02:34:03;;;;;;;4.18;3.72;;;;;;;-145.71;100.00;60690.53;5013769;28;20029;-82
2021/08/05 02:36:29;;;;;;;9.18;3.95;;;;;;;-145.71;100.00;60690.53;5015394;28;20584;-82
2021/08/05 02:38:54;;;;;;;10.15;3.63;;;;;;;-145.71;100.00;60690.53;5015840;28;20087;-82
2021/08/05 02:41:21;;;;;;;7.43;4.28;;;;;;;-145.71;100.00;60690.53;4997769;28;20132;-82
2021/08/05 02:43:46;;;;;;;5.38;4.55;;;;;;;-145.71;100.00;60690.53;5015479;28;20029;-82
2021/08/05 02:46:14;;;;;;;6.30;4.10;;;;;;;-145.71;100.00;60690.53;5014649;28;20102;-82
2021/08/05 02:48:40;;;;;;;9.60;4.10;;;;;;;-145.71;100.00;60690.53;5014135;28;20421;-81
2021/08/05 02:51:06;;;;;;;7.35;4.40;;;;;;;-145.71;100.00;60690.53;5013900;28;20025;-82
2021/08/05 02:53:32;;;;;;;5.35;4.25;;;;;;;-145.71;100.00;60690.53;5013013;28;20492;-82
2021/08/05 02:55:58;;;;;;;6.10;3.30;;;;;;;-145.71;100.00;60690.53;5012655;28;20542;-82
2021/08/05 02:58:23;;;;;;;7.13;2.80;;;;;;;-145.71;100.00;60690.53;4995631;28;20478;-82
2021/08/05 03:00:49;;;;;;;17.42;5.28;;;;;;;-145.71;100.00;60690.53;4995207;28;20033;-82
2021/08/05 03:03:21;;;;;;;9.30;6.35;;;;;;;-145.71;100.00;60690.53;4996788;28;20030;-82
2021/08/05 03:05:46;;;;;;;9.95;5.10;;;;;;;-145.71;100.00;60690.53;5011954;28;20040;-81
2021/08/05 03:08:12;;;;;;;6.93;4.95;;;;;;;-145.71;100.00;60690.53;5012388;28;20026;-81
2021/08/05 03:10:37;;;;;;;6.55;4.68;;;;;;;-145.71;100.00;60690.53;5012352;28;20045;-82
2021/08/05 03:13:03;;;;;;;8.35;4.22;;;;;;;-145.71;100.00;60690.53;5012624;28;20378;-81
2021/08/05 03:15:29;;;;;;;6.32;4.70;;;;;;;-145.71;100.00;60690.53;4995674;28;20117;-82
2021/08/05 03:17:54;;;;;;;10.30;6.03;;;;;;;-145.71;100.00;60690.53;5016208;28;20089;-82
2021/08/05 03:20:20;;;;;;;8.82;4.57;;;;;;;-145.71;100.00;60690.53;4997077;28;20172;-82
2021/08/05 03:22:45;;;;;;;8.70;5.43;;;;;;;-145.71;100.00;60690.53;5014295;28;20184;-82
2021/08/05 03:25:11;;;;;;;10.52;6.00;;;;;;;-145.71;100.00;60690.53;4995894;28;20103;-82
2021/08/05 03:27:38;;;;;;;5.13;4.63;;;;;;;-145.71;100.00;60690.53;5013646;28;20037;-81
2021/08/05 03:30:05;;;;;;;7.55;4.95;;;;;;;-145.71;100.00;60690.53;5013646;28;20029;-82
2021/08/05 03:32:30;;;;;;;11.85;6.05;;;;;;;-145.71;100.00;60690.53;4994465;28;20080;-82
2021/08/05 03:34:55;;;;;;;6.68;4.50;;;;;;;-145.71;100.00;60690.53;5013236;28;20034;-82
2021/08/05 03:37:20;;;;;;;11.75;5.72;;;;;;;-145.71;100.00;60690.53;5013557;28;20113;-82
2021/08/05 03:39:46;;;;;;;8.00;6.00;;;;;;;-145.71;100.00;60690.53;5011581;28;20041;-81
2021/08/05 03:42:11;;;;;;;9.52;6.63;;;;;;;-145.71;100.00;60690.53;5011638;28;20080;-82
2021/08/05 03:44:36;;;;;;;6.82;5.47;;;;;;;-145.71;100.00;60690.53;5011091;28;20025;-82
2021/08/05 03:47:02;;;;;;;11.68;6.65;;;;;;;-145.71;100.00;60690.53;5011833;28;20033;-82
2021/08/05 03:49:27;;;;;;;6.55;5.78;;;;;;;-145.71;100.00;60690.53;5015660;28;20112;-83
2021/08/05 03:51:53;;;;;;;13.60;7.00;;;;;;;-145.71;100.00;60690.53;4997033;28;20028;-82
2021/08/05 03:54:18;;;;;;;8.43;6.50;;;;;;;-145.71;100.00;60690.53;5010562;28;20034;-82
2021/08/05 03:56:43;;;;;;;8.85;6.47;;;;;;;-145.71;100.00;60690.53;5010999;28;20030;-81
2021/08/05 03:59:08;;;;;;;9.05;7.28;;;;;;;-145.71;100.00;60690.53;5009216;28;20022;-82
2021/08/05 04:01:34;;;;;;;7.15;6.47;;;;;;;-145.71;100.00;60690.53;5009956;28;20022;-81
2021/08/05 04:03:59;;;;;;;7.80;6.72;;;;;;;-145.71;100.00;60690.53;5012535;28;20111;-82
2021/08/05 04:06:24;;;;;;;6.88;6.03;;;;;;;-145.71;100.00;60690.53;5021695;28;20033;-81
2021/08/05 04:08:50;;;;;;;10.13;6.93;;;;;;;-145.71;100.00;60690.53;5019313;28;20036;-82
2021/08/05 04:11:15;;;;;;;9.65;6.28;;;;;;;-145.71;100.00;60690.53;5014574;28;20478;-82
2021/08/05 04:13:40;;;;;;;11.02;7.45;;;;;;;-145.71;100.00;60690.53;4992110;28;20030;-82
2021/08/05 04:16:07;;;;;;;6.93;6.05;;;;;;;-145.71;100.00;60690.53;5006168;28;20026;-81
2021/08/05 04:18:33;;;;;;;10.27;6.07;;;;;;;-145.71;100.00;60690.53;5021617;28;20033;-82
2021/08/05 04:20:59;;;;;;;7.65;5.85;;;;;;;-145.71;100.00;60690.53;5007266;28;20564;-82
2021/08/05 04:23:24;;;;;;;4.57;3.97;;;;;;;-145.71;100.00;60690.53;5031244;28;20076;-81
2021/08/05 04:25:49;;;;;;;5.63;4.75;;;;;;;-145.71;100.00;60690.53;5029701;28;20109;-82
2021/08/05 04:28:14;;;;;;;4.47;4.07;;;;;;;-145.71;100.00;60690.53;5019351;28;20024;-82
2021/08/05 04:30:40;;;;;;;7.40;4.70;;;;;;;-145.71;100.00;60690.53;5022287;28;20026;-82
2021/08/05 04:33:05;;;;;;;5.35;4.85;;;;;;;-145.71;100.00;60690.53;4995535;28;20032;-82
2021/08/05 04:35:30;;;;;;;7.28;5.18;;;;;;;-145.71;100.00;60690.53;5028699;28;20033;-81
2021/08/05 04:37:58;;;;;;;6.55;5.40;;;;;;;-145.71;100.00;60690.53;5017177;28;20789;-82
2021/08/05 04:40:26;;;;;;;5.60;3.72;;;;;;;-145.71;100.00;60690.53;5033067;28;20485;-82
2021/08/05 04:42:51;;;;;;;7.07;4.30;;;;;;;-145.71;100.00;60690.53;5016066;28;20068;-81
2021/08/05 04:45:17;;;;;;;9.50;4.95;;;;;;;-145.71;100.00;60690.53;5015047;28;20029;-82
2021/08/05 04:48:03;;;;;;;7.38;4.72;;;;;;;-145.71;100.00;60690.53;5029598;28;20044;-82
2021/08/05 04:50:31;;;;;;;7.00;3.90;;;;;;;-145.71;100.00;60690.53;4999474;28;20178;-83
2021/08/05 04:52:59;;;;;;;5.43;4.47;;;;;;;-145.71;100.00;60690.53;5014569;28;20049;-83
2021/08/05 04:55:25;;;;;;;8.70;4.93;;;;;;;-145.71;100.00;60690.53;5011757;28;20029;-82
2021/08/05 04:57:53;;;;;;;5.88;4.30;;;;;;;-145.71;100.00;60690.53;5016130;28;20063;-83
2021/08/05 05:00:27;;;;;;;7.60;4.40;;;;;;;-145.71;100.00;60690.53;5025840;28;20029;-82
2021/08/05 05:02:53;;;;;;;3.65;3.28;;;;;;;-145.71;100.00;60690.53;5004943;28;20102;-82
2021/08/05 05:05:19;;;;;;;10.02;4.35;;;;;;;-145.71;100.00;60690.53;5032948;28;20747;-82
2021/08/05 05:07:44;;;;;;;5.18;4.10;;;;;;;-145.71;100.00;60690.53;5029722;28;20064;-83
2021/08/05 05:10:12;;;;;;;4.70;4.30;;;;;;;-145.71;100.00;60690.53;5000161;28;20067;-81
2021/08/05 05:12:37;;;;;;;5.65;4.40;;;;;;;-145.71;100.00;60690.53;5014018;28;20029;-83
2021/08/05 05:15:03;;;;;;;7.38;4.00;;;;;;;-145.71;100.00;60690.53;5018693;28;20040;-83
2021/08/05 05:17:28;;;;;;;5.50;3.05;;;;;;;-145.71;100.00;60690.53;5018912;28;20030;-83
2021/08/05 05:19:54;;;;;;;5.13;4.15;;;;;;;-145.71;100.00;60690.53;5012077;28;20112;-83
2021/08/05 05:22:20;;;;;;;4.22;3.30;;;;;;;-145.71;100.00;60690.53;5001190;28;20013;-82
2021/08/05 05:24:45;;;;;;;5.88;4.13;;;;;;;-145.71;100.00;60690.53;5022254;28;20117;-83
2021/08/05 05:27:11;;;;;;;5.15;3.33;;;;;;;-145.71;100.00;60690.53;5009764;28;20029;-83
2021/08/05 05:29:38;;;;;;;4.80;3.22;;;;;;;-145.71;100.00;60690.53;5013658;28;20049;-82
2021/08/05 05:32:04;;;;;;;6.18;3.33;;;;;;;-145.71;100.00;60690.53;5012699;28;20026;-81
2021/08/05 05:34:29;;;;;;;8.95;5.40;;;;;;;-145.71;100.00;60690.53;5002500;28;20108;-82
2021/08/05 05:36:54;;;;;;;8.90;3.65;;;;;;;-145.71;100.00;60690.53;5003058;28;20137;-82
2021/08/05 05:39:20;;;;;;;6.15;3.83;;;;;;;-145.71;100.00;60690.53;4993969;28;20053;-81
2021/08/05 05:41:45;;;;;;;5.82;3.45;;;;;;;-145.71;100.00;60690.53;5015966;28;20041;-83
2021/08/05 05:44:11;;;;;;;7.32;3.70;;;;;;;-145.71;100.00;60690.53;5029053;28;20077;-83
2021/08/05 05:46:36;;;;;;;10.93;4.00;;;;;;;-145.71;100.00;60690.53;5022889;28;20034;-83
2021/08/05 05:49:02;;;;;;;10.80;3.67;;;;;;;-145.71;100.00;60690.53;5004388;28;20026;-83
2021/08/05 05:51:27;;;;;;;8.32;4.68;;;;;;;-145.71;100.00;60690.53;5029324;28;20053;-82
2021/08/05 05:53:52;;;;;;;8.52;4.70;;;;;;;-145.71;100.00;60690.53;5011725;28;20030;-83
2021/08/05 05:56:18;;;;;;;6.10;4.30;;;;;;;-145.71;100.00;60690.53;5018361;28;20049;-83
2021/08/05 05:58:43;;;;;;;9.13;3.95;;;;;;;-145.71;100.00;60690.53;5033386;28;20115;-82
2021/08/05 06:01:08;;;;;;;5.82;3.67;;;;;;;-145.71;100.00;60690.53;5012204;28;20088;-82
2021/08/05 06:03:34;;;;;;;8.15;4.10;;;;;;;-145.71;100.00;60690.53;5030525;28;20033;-82
2021/08/05 06:05:59;;;;;;;7.10;4.20;;;;;;;-145.71;100.00;60690.53;5014271;28;20036;-81
2021/08/05 06:08:24;;;;;;;5.97;3.72;;;;;;;-145.71;100.00;60690.53;5030444;28;20037;-83
2021/08/05 06:10:49;;;;;;;5.97;3.33;;;;;;;-145.71;100.00;60690.53;5024290;28;20370;-83
2021/08/05 06:13:15;;;;;;;4.95;3.78;;;;;;;-145.71;100.00;60690.53;5028526;28;20821;-83
2021/08/05 06:15:40;;;;;;;9.27;3.28;;;;;;;-145.71;100.00;60690.53;5015043;28;20045;-83
2021/08/05 06:18:05;;;;;;;5.63;3.20;;;;;;;-145.71;100.00;60690.53;5028152;28;20408;-83
2021/08/05 06:20:31;;;;;;;5.20;4.22;;;;;;;-145.71;100.00;60690.53;5011806;28;20030;-82
2021/08/05 06:22:56;;;;;;;9.45;3.67;;;;;;;-145.71;100.00;60690.53;5004437;28;20049;-82
2021/08/05 06:25:21;;;;;;;6.72;4.25;;;;;;;-145.71;100.00;60690.53;5014967;28;20046;-82
2021/08/05 06:27:48;;;;;;;8.10;3.45;;;;;;;-145.71;100.00;60690.53;5000241;28;20076;-81
2021/08/05 06:30:14;;;;;;;5.40;3.08;;;;;;;-145.71;100.00;60690.53;5024409;28;20029;-82
2021/08/05 06:32:40;;;;;;;7.97;3.78;;;;;;;-145.71;100.00;60690.53;5021881;28;20564;-82
2021/08/05 06:35:07;;;;;;;6.40;3.40;;;;;;;-145.71;100.00;60690.53;5018079;28;20124;-82
2021/08/05 06:37:32;;;;;;;8.52;4.25;;;;;;;-145.71;100.00;60690.53;4999445;28;20045;-82
2021/08/05 06:39:59;;;;;;;8.38;3.55;;;;;;;-145.71;100.00;60690.53;5010941;28;20026;-82
2021/08/05 06:42:24;;;;;;;3.45;3.00;;;;;;;-145.71;100.00;60690.53;5029851;28;20030;-83
2021/08/05 06:44:50;;;;;;;5.15;3.35;;;;;;;-145.71;100.00;60690.53;5022203;28;20075;-82
2021/08/05 06:47:15;;;;;;;6.00;3.78;;;;;;;-145.71;100.00;60690.53;5007426;28;20423;-82
2021/08/05 06:49:41;;;;;;;10.27;3.33;;;;;;;-145.71;100.00;60690.53;4994589;28;20026;-82
2021/08/05 06:52:06;;;;;;;8.30;3.58;;;;;;;-145.71;100.00;60690.53;5014849;28;20473;-82
2021/08/05 06:54:32;;;;;;;9.20;3.15;;;;;;;-145.71;100.00;60690.53;5005284;28;20156;-82
2021/08/05 06:56:57;;;;;;;4.68;2.10;;;;;;;-145.71;100.00;60690.53;5022239;28;20032;-82
2021/08/05 06:59:22;;;;;;;3.45;2.40;;;;;;;-145.71;100.00;60690.53;5017988;28;20088;-82
2021/08/05 07:01:48;;;;;;;9.63;3.28;;;;;;;-145.71;100.00;60690.53;5014814;28;20116;-82
2021/08/05 07:04:13;;;;;;;4.75;2.45;;;;;;;-145.71;100.00;60690.53;5027363;28;20568;-82
2021/08/05 07:06:39;;;;;;;3.92;2.67;;;;;;;-145.71;100.00;60690.53;5012900;28;20553;-82
2021/08/05 07:09:05;;;;;;;6.22;2.45;;;;;;;-145.71;100.00;60690.53;5004736;28;20029;-82
2021/08/05 07:11:30;;;;;;;5.35;2.55;;;;;;;-145.71;100.00;60690.53;5013288;28;20104;-83
2021/08/05 07:13:55;;;;;;;7.25;2.53;;;;;;;-145.71;100.00;60690.53;5028963;28;20045;-82
2021/08/05 07:16:21;;;;;;;4.13;2.70;;;;;;;-145.71;100.00;60690.53;5003756;28;20036;-82
2021/08/05 07:18:46;;;;;;;4.57;2.30;;;;;;;-145.71;100.00;60690.53;5009518;28;20022;-83
2021/08/05 07:21:11;;;;;;;4.22;2.05;;;;;;;-145.71;100.00;60690.53;5023776;28;20029;-82
2021/08/05 07:23:37;;;;;;;6.72;2.28;;;;;;;-145.71;100.00;60690.53;5029292;28;20083;-83
2021/08/05 07:26:02;;;;;;;4.60;2.35;;;;;;;-145.71;100.00;60690.53;4996757;28;20021;-82
2021/08/05 07:28:30;;;;;;;6.72;2.70;;;;;;;-145.71;100.00;60690.53;5026751;28;20045;-83
2021/08/05 07:30:57;;;;;;;3.58;2.50;;;;;;;-145.71;100.00;60690.53;5025061;28;20021;-82
2021/08/05 07:33:23;;;;;;;6.43;2.75;;;;;;;-145.71;100.00;60690.53;5029760;28;20060;-82
2021/08/05 07:35:48;;;;;;;4.05;2.33;;;;;;;-145.71;100.00;60690.53;5013148;28;20053;-82
2021/08/05 07:38:14;;;;;;;6.80;2.55;;;;;;;-145.71;100.00;60690.53;5029772;28;20036;-83
2021/08/05 07:40:39;;;;;;;2.70;2.50;;;;;;;-145.71;100.00;60690.53;5019454;28;20030;-82
2021/08/05 07:43:05;;;;;;;6.78;2.80;;;;;;;-145.71;100.00;60690.53;5004879;28;20021;-81
2021/08/05 07:45:32;;;;;;;7.18;3.58;;;;;;;-145.71;100.00;60690.53;5012413;28;20030;-83
2021/08/05 07:47:57;;;;;;;4.47;3.67;;;;;;;-145.71;100.00;60690.53;5013410;28;20104;-83
2021/08/05 07:50:23;;;;;;;3.45;2.38;;;;;;;-145.71;100.00;60690.53;5004859;28;20169;-83
2021/08/05 07:52:48;;;;;;;6.88;3.10;;;;;;;-145.71;100.00;60690.53;5004924;28;20117;-82
2021/08/05 07:55:14;;;;;;;9.52;2.42;;;;;;;-145.71;100.00;60690.53;5031069;28;20104;-82
2021/08/05 07:57:39;;;;;;;7.72;2.85;;;;;;;-145.71;100.00;60690.53;5027164;28;20072;-82
2021/08/05 08:00:07;;;;;;;8.40;2.85;;;;;;;-145.71;100.00;60690.53;5029890;28;20021;-83
2021/08/05 08:02:33;;;;;;;5.22;2.70;;;;;;;-145.71;100.00;60690.53;5030212;28;20095;-83
2021/08/05 08:04:58;;;;;;;6.38;2.92;;;;;;;-145.71;100.00;60690.53;4999063;28;20034;-82
2021/08/05 08:07:23;;;;;;;6.43;2.55;;;;;;;-145.71;100.00;60690.53;5025328;28;20753;-82
2021/08/05 08:09:48;;;;;;;4.30;2.42;;;;;;;-145.71;100.00;60690.53;5010964;28;20083;-83
2021/08/05 08:12:14;;;;;;;8.80;2.38;;;;;;;-145.71;100.00;60690.53;4991599;28;20041;-83
2021/08/05 08:14:39;;;;;;;4.55;3.00;;;;;;;-145.71;100.00;60690.53;5008947;28;20036;-82
2021/08/05 08:17:04;;;;;;;5.43;2.50;;;;;;;-145.71;100.00;60690.53;5003909;28;20511;-81
2021/08/05 08:19:32;;;;;;;6.05;2.67;;;;;;;-145.71;100.00;60690.53;4994067;28;20021;-82
2021/08/05 08:21:58;;;;;;;5.47;2.70;;;;;;;-145.71;100.00;60690.53;4990774;28;20026;-83
2021/08/05 08:24:23;;;;;;;6.60;3.00;;;;;;;-145.71;100.00;60690.53;4993891;28;20050;-83
2021/08/05 08:26:49;;;;;;;7.10;2.67;;;;;;;-145.71;100.00;60690.53;5014064;28;20572;-82
2021/08/05 08:29:14;;;;;;;10.07;3.33;;;;;;;-145.71;100.00;60690.53;4999774;28;20021;-83
2021/08/05 08:31:39;;;;;;;8.43;3.50;;;;;;;-145.71;100.00;60690.53;5007940;28;20029;-83
2021/08/05 08:34:05;;;;;;;7.25;2.70;;;;;;;-145.71;100.00;60690.53;5015175;28;20497;-83
2021/08/05 08:36:30;;;;;;;6.75;2.63;;;;;;;-145.71;100.00;60690.53;5021314;28;20042;-83
2021/08/05 08:38:58;;;;;;;6.93;2.55;;;;;;;-145.71;100.00;60690.53;5021667;28;20372;-83
2021/08/05 08:41:24;;;;;;;2.90;2.15;;;;;;;-145.71;100.00;60690.53;5013946;28;20025;-83
2021/08/05 08:43:49;;;;;;;4.25;2.22;;;;;;;-145.71;100.00;60690.53;5009578;28;20026;-83
2021/08/05 08:46:21;;;;;;;5.40;2.88;;;;;;;-145.71;100.00;60690.53;4998197;28;20212;-82
2021/08/05 08:48:53;;;;;;;7.95;2.25;;;;;;;-145.71;100.00;60690.53;5023161;28;20029;-82
2021/08/05 08:51:19;;;;;;;2.58;1.58;;;;;;;-145.71;100.00;60690.53;5017666;28;20168;-83
2021/08/05 08:53:48;;;;;;;5.00;1.88;;;;;;;-145.71;100.00;60690.53;5010122;28;20026;-83
2021/08/05 08:56:14;;;;;;;5.85;2.45;;;;;;;-145.71;100.00;60690.53;5017379;28;20032;-83
2021/08/05 08:58:40;;;;;;;6.20;2.60;;;;;;;-145.71;100.00;60690.53;5002231;28;20022;-83
2021/08/05 09:01:05;;;;;;;5.78;3.50;;;;;;;-145.71;100.00;60690.53;5022922;28;20091;-83
2021/08/05 09:03:38;;;;;;;9.35;2.60;;;;;;;-145.71;100.00;60690.53;5030075;28;20059;-82
2021/08/05 09:06:03;;;;;;;3.72;2.30;;;;;;;-145.71;100.00;60690.53;5013765;28;20211;-83
2021/08/05 09:08:29;;;;;;;12.48;3.28;;;;;;;-145.71;100.00;60690.53;4997585;28;20029;-82
2021/08/05 09:10:55;;;;;;;5.03;2.55;;;;;;;-145.71;100.00;60690.53;5024938;28;20029;-83
2021/08/05 09:13:21;;;;;;;4.65;2.83;;;;;;;-145.71;100.00;60690.53;5017456;28;20036;-83
2021/08/05 09:15:47;;;;;;;8.10;2.60;;;;;;;-145.71;100.00;60690.53;5013656;28;20473;-83
2021/08/05 09:18:35;;;;;;;3.03;2.10;;;;;;;-145.71;100.00;60690.53;5027165;28;20038;-82
2021/08/05 09:21:17;;;;;;;5.03;2.40;;;;;;;-145.71;100.00;60690.53;5016582;28;20109;-83
2021/08/05 09:23:53;;;;;;;6.03;2.75;;;;;;;-145.71;100.00;60690.53;5031530;28;20059;-83
2021/08/05 09:26:42;;;;;;;7.05;1.92;;;;;;;-145.71;100.00;60690.53;5013762;28;20025;-83
2021/08/05 09:29:12;;;;;;;2.67;2.03;;;;;;;-145.71;100.00;60690.53;5027624;28;20025;-83
2021/08/05 09:31:55;;;;;;;5.13;2.45;;;;;;;-145.71;100.00;60690.53;5016132;28;20032;-82
2021/08/05 09:34:32;;;;;;;11.25;2.60;;;;;;;-145.71;100.00;60690.53;5033208;28;20089;-83
2021/08/05 09:37:06;;;;;;;3.67;2.40;;;;;;;-145.71;100.00;60690.53;5020738;28;20049;-82
2021/08/05 09:39:33;;;;;;;13.57;2.90;;;;;;;-145.71;100.00;60690.53;5028070;28;20029;-82
2021/08/05 09:42:04;;;;;;;9.25;2.47;;;;;;;-145.71;100.00;60690.53;4997977;28;20095;-82
2021/08/05 09:44:39;;;;;;;4.88;2.05;;;;;;;-145.71;100.00;60690.53;5025006;28;20750;-83
2021/08/05 09:47:14;;;;;;;2.88;2.10;;;;;;;-145.71;100.00;60690.53;5025537;28;20038;-83
2021/08/05 09:49:45;;;;;;;2.22;1.80;;;;;;;-145.71;100.00;60690.53;5031489;28;20096;-83
2021/08/05 09:52:12;;;;;;;7.60;1.95;;;;;;;-145.71;100.00;60690.53;5000622;28;20025;-83
2021/08/05 09:54:38;;;;;;;15.43;2.35;;;;;;;-145.71;100.00;60690.53;5006099;28;20060;-83
2021/08/05 09:57:05;;;;;;;2.80;1.65;;;;;;;-145.71;100.00;60690.53;5013065;28;20061;-82
2021/08/05 09:59:30;;;;;;;4.72;1.75;;;;;;;-145.71;100.00;60690.53;5014244;28;20469;-82
2021/08/05 10:02:05;;;;;;;9.50;2.10;;;;;;;-145.71;100.00;60690.53;5028096;28;20080;-82
2021/08/05 10:04:36;;;;;;;4.85;1.70;;;;;;;-145.71;100.00;60690.53;5020738;28;20036;-83
2021/08/05 10:07:08;;;;;;;4.93;1.65;;;;;;;-145.71;100.00;60690.53;5001814;28;20030;-82
2021/08/05 10:09:35;;;;;;;2.05;1.58;;;;;;;-145.71;100.00;60690.53;5011116;28;20040;-83
2021/08/05 10:12:14;;;;;;;1.65;1.50;;;;;;;-145.71;100.00;60690.53;5026975;28;20030;-82
2021/08/05 10:14:40;;;;;;;2.40;1.50;;;;;;;-145.71;100.00;60690.53;5009955;28;20033;-82
2021/08/05 10:17:06;;;;;;;4.13;1.80;;;;;;;-145.71;100.00;60690.53;5026853;28;20091;-83
2021/08/05 10:19:42;;;;;;;8.40;1.80;;;;;;;-145.71;100.00;60690.53;4998744;28;20109;-83
2021/08/05 10:22:10;;;;;;;2.42;1.88;;;;;;;-145.71;100.00;60690.53;5027367;28;20113;-83
2021/08/05 10:24:38;;;;;;;7.32;1.83;;;;;;;-145.71;100.00;60690.53;5022470;28;20033;-82
2021/08/05 10:27:05;;;;;;;6.47;2.35;;;;;;;-145.71;100.00;60690.53;5020272;28;20365;-83
2021/08/05 10:29:32;;;;;;;4.22;1.90;;;;;;;-145.71;100.00;60690.53;5011452;28;20145;-82
2021/08/05 10:31:58;;;;;;;4.43;2.10;;;;;;;-145.71;100.00;60690.53;5030427;28;20041;-82
2021/08/05 10:34:24;;;;;;;4.38;1.58;;;;;;;-145.71;100.00;60690.53;5030981;28;20041;-83
2021/08/05 10:36:50;;;;;;;5.30;1.98;;;;;;;-145.71;100.00;60690.53;5002083;28;20062;-83
2021/08/05 10:39:16;;;;;;;4.78;1.70;;;;;;;-145.71;100.00;60690.53;4993564;28;20493;-83
2021/08/05 10:41:41;;;;;;;8.07;4.18;;;;;;;-145.71;100.00;60690.53;5025192;28;20083;-83
2021/08/05 10:44:07;;;;;;;2.40;1.60;;;;;;;-145.71;100.00;60690.53;4997017;28;20033;-83
2021/08/05 10:46:33;;;;;;;3.63;1.70;;;;;;;-145.71;100.00;60690.53;5027473;28;20034;-83
2021/08/05 10:49:08;;;;;;;4.97;1.90;;;;;;;-145.71;100.00;60690.53;4997157;28;20057;-83
2021/08/05 10:51:35;;;;;;;5.20;2.20;;;;;;;-145.71;100.00;60690.53;5011944;28;20029;-81
2021/08/05 10:54:01;;;;;;;8.18;2.17;;;;;;;-145.71;100.00;60690.53;5011300;28;20036;-83
2021/08/05 10:56:30;;;;;;;7.70;2.35;;;;;;;-145.71;100.00;60690.53;5018367;28;20775;-82
2021/08/05 10:59:10;;;;;;;2.92;2.00;;;;;;;-145.71;100.00;60690.53;5018651;28;20113;-82
2021/08/05 11:01:46;;;;;;;3.60;2.00;;;;;;;-145.71;100.00;60690.53;5025545;28;20029;-83
2021/08/05 11:04:34;;;;;;;2.42;2.05;;;;;;;-145.71;100.00;60690.53;4992237;28;20116;-83
2021/08/05 11:07:21;;;;;;;8.20;2.65;;;;;;;-145.71;100.00;60690.53;5023067;28;20055;-83
2021/08/05 11:09:48;;;;;;;4.15;2.13;;;;;;;-145.71;100.00;60690.53;5012786;28;20030;-82
2021/08/05 11:12:38;;;;;;;6.88;2.70;;;;;;;-145.71;100.00;60690.53;5012877;28;20029;-82